Weather at Torquay Go-Kart circuit helipad

Public forecast

Using degrees Celsius for public forecast. Weather courtesy of forecast.io.

Closest aviation weather report (METAR) to Torquay Go-Kart circuit helipad

Report is more than 2 hours old.

Closest report is Exeter International Airport, 21.1 nm (39.0 km) NNE. Retrieved 2021/09/26 19:20 UTC (5 hours ago):

EGTE 261920Z 17010KT 9999 FEW008 SCT012 18/16 Q1010

Closest aviation forecast (TAF) to Torquay Go-Kart circuit helipad

Forecast is more than 12 hours old.

Closest forecast is Exeter International Airport, 21.1 nm (39.0 km) NNE. Retrieved 2012/04/19 12:15 UTC (9 years ago):

TAF TAF EGTE 191401Z 1912/1924 31016KT 9999 SCT030 SCT035 PROB40 TEMPO 1915/1918 7000 SHRA BKN014